Time;durP1;ratioP1;P1;durP2;ratioP2;P2;SDS_P1;SDS_P2;PMS_P1;PMS_P2;Temp;Humidity;BMP_temperature;BMP_pressure;BME280_temperature;BME280_humidity;BME280_pressure;Samples;Min_cycle;Max_cycle;Signal;HPM_P1;HPM_P2
2023/09/08 00:02:27;;;;;;;;;;;;;;;25.48;38.88;102240.64;106925;1255;25365;-48
2023/09/08 00:04:54;;;;;;;;;;;;;;;25.45;39.47;102238.89;106813;1269;25341;-49
2023/09/08 00:07:21;;;;;;;;;;;;;;;25.42;39.38;102238.69;106809;1260;25309;-49
2023/09/08 00:09:48;;;;;;;;;;;;;;;25.39;39.20;102235.45;106829;1269;25359;-48
2023/09/08 00:12:15;;;;;;;;;;;;;;;25.36;39.28;102237.60;106807;1258;25395;-49
2023/09/08 00:14:42;;;;;;;;;;;;;;;25.34;39.34;102239.34;106805;1270;25305;-51
2023/09/08 00:17:09;;;;;;;;;;;;;;;25.32;39.68;102242.83;106753;1264;26474;-52
2023/09/08 00:19:36;;;;;;;;;;;;;;;25.31;39.31;102241.68;106523;1264;22511;-51
2023/09/08 00:22:05;;;;;;;;;;;;;;;25.29;39.19;102241.98;106605;1270;24220;-51
2023/09/08 00:24:33;;;;;;;;;;;;;;;25.26;39.25;102236.80;106746;1270;25350;-51
2023/09/08 00:27:00;;;;;;;;;;;;;;;25.24;39.37;102237.96;106835;1270;25334;-51
2023/09/08 00:29:27;;;;;;;;;;;;;;;25.22;39.49;102242.70;106737;1266;25334;-52
2023/09/08 00:31:54;;;;;;;;;;;;;;;25.20;39.54;102239.33;106814;1267;22497;-50
2023/09/08 00:34:21;;;;;;;;;;;;;;;25.17;39.47;102243.77;106564;1258;316125;-50
2023/09/08 00:36:48;;;;;;;;;;;;;;;25.13;39.45;102241.88;106817;1270;25333;-51
2023/09/08 00:39:15;;;;;;;;;;;;;;;25.10;39.46;102237.79;106804;1267;25392;-52
2023/09/08 00:41:42;;;;;;;;;;;;;;;25.08;38.96;102238.05;106865;1263;24208;-51
2023/09/08 00:44:11;;;;;;;;;;;;;;;25.05;38.87;102240.36;106671;1273;25373;-49
2023/09/08 00:46:38;;;;;;;;;;;;;;;25.03;39.06;102237.80;106866;1267;25321;-51
2023/09/08 00:49:05;;;;;;;;;;;;;;;25.03;39.00;102238.02;106820;1255;25392;-51
2023/09/08 00:51:33;;;;;;;;;;;;;;;25.01;39.01;102237.21;106832;1270;25424;-51
2023/09/08 00:54:01;;;;;;;;;;;;;;;25.00;39.20;102232.35;106766;1266;25424;-50
2023/09/08 00:56:29;;;;;;;;;;;;;;;24.98;39.32;102231.71;106733;1275;25353;-52
2023/09/08 00:58:56;;;;;;;;;;;;;;;24.96;38.83;102233.30;106771;1261;23311;-49
2023/09/08 01:01:23;;;;;;;;;;;;;;;24.93;38.78;102230.27;106796;1270;25382;-49
2023/09/08 01:03:50;;;;;;;;;;;;;;;24.91;38.54;102232.85;106814;1270;25379;-50
2023/09/08 01:06:17;;;;;;;;;;;;;;;24.90;38.85;102238.60;106760;1267;25324;-51
2023/09/08 01:08:45;;;;;;;;;;;;;;;24.88;39.25;102242.98;106828;1260;25495;-50
2023/09/08 01:11:12;;;;;;;;;;;;;;;24.87;38.94;102233.30;106645;1278;24172;-49
2023/09/08 01:13:39;;;;;;;;;;;;;;;24.87;39.11;102239.88;106666;1270;25385;-50
2023/09/08 01:16:08;;;;;;;;;;;;;;;24.85;38.90;102238.36;106693;1271;22512;-52
2023/09/08 01:18:35;;;;;;;;;;;;;;;24.83;38.92;102235.79;106738;1270;25305;-51
2023/09/08 01:21:12;;;;;;;;;;;;;;;24.82;39.17;102237.99;106753;1270;25331;-51
2023/09/08 01:23:45;;;;;;;;;;;;;;;24.81;39.44;102231.68;106762;1267;25325;-51
2023/09/08 01:26:13;;;;;;;;;;;;;;;24.80;39.44;102231.40;106737;1270;24169;-51
2023/09/08 01:28:41;;;;;;;;;;;;;;;24.79;39.33;102225.61;106829;1260;22521;-50
2023/09/08 01:31:08;;;;;;;;;;;;;;;24.77;39.10;102226.42;106774;1267;24227;-51
2023/09/08 01:33:35;;;;;;;;;;;;;;;24.75;39.26;102223.15;106737;1263;25465;-49
2023/09/08 01:36:02;;;;;;;;;;;;;;;24.73;39.56;102224.35;106840;1267;25334;-50
2023/09/08 01:38:30;;;;;;;;;;;;;;;24.70;39.75;102226.45;106763;1261;25372;-48
2023/09/08 01:40:57;;;;;;;;;;;;;;;24.67;40.28;102219.30;106729;1264;24260;-48
2023/09/08 01:43:24;;;;;;;;;;;;;;;24.65;40.32;102222.63;106789;1260;25296;-50
2023/09/08 01:45:51;;;;;;;;;;;;;;;24.62;40.23;102221.41;106713;1270;23191;-49
2023/09/08 01:48:18;;;;;;;;;;;;;;;24.61;40.57;102220.77;106815;1266;25325;-49
2023/09/08 01:50:46;;;;;;;;;;;;;;;24.60;40.54;102220.11;106799;1270;25379;-49
2023/09/08 01:53:13;;;;;;;;;;;;;;;24.58;40.49;102221.45;106773;1267;25316;-50
2023/09/08 01:55:40;;;;;;;;;;;;;;;24.57;40.72;102219.91;106738;1264;22930;-50
2023/09/08 01:58:06;;;;;;;;;;;;;;;24.55;40.87;102220.55;106770;1259;25305;-50
2023/09/08 02:00:33;;;;;;;;;;;;;;;24.51;40.33;102217.23;106470;1274;25395;-51
2023/09/08 02:03:00;;;;;;;;;;;;;;;24.47;40.41;102214.48;106319;1275;24214;-49
2023/09/08 02:05:28;;;;;;;;;;;;;;;24.44;40.43;102214.99;106396;1275;25545;-51
2023/09/08 02:07:56;;;;;;;;;;;;;;;24.42;40.39;102217.77;106282;1273;22525;-49
2023/09/08 02:10:23;;;;;;;;;;;;;;;24.43;40.53;102213.84;106510;1261;25336;-50
2023/09/08 02:12:50;;;;;;;;;;;;;;;24.42;40.54;102216.00;106507;1270;25472;-49
2023/09/08 02:15:17;;;;;;;;;;;;;;;24.41;40.83;102215.21;106311;1282;25334;-50
2023/09/08 02:17:44;;;;;;;;;;;;;;;24.37;40.77;102211.11;106352;1276;25498;-49
2023/09/08 02:20:11;;;;;;;;;;;;;;;24.35;40.63;102216.23;106514;1262;25323;-55
2023/09/08 02:22:38;;;;;;;;;;;;;;;24.32;40.59;102211.80;106506;1274;25444;-50
2023/09/08 02:25:06;;;;;;;;;;;;;;;24.31;41.00;102214.68;106538;1274;25387;-49
2023/09/08 02:27:33;;;;;;;;;;;;;;;24.30;41.10;102211.40;106328;1271;25330;-50
2023/09/08 02:30:00;;;;;;;;;;;;;;;24.28;41.41;102213.06;106328;1274;25463;-48
2023/09/08 02:32:28;;;;;;;;;;;;;;;24.28;41.12;102207.08;106349;1276;24350;-51
2023/09/08 02:34:55;;;;;;;;;;;;;;;24.26;41.22;102207.85;106837;1256;25907;-48
2023/09/08 02:37:22;;;;;;;;;;;;;;;24.24;41.48;102205.80;106580;1270;25324;-53
2023/09/08 02:39:49;;;;;;;;;;;;;;;24.21;41.34;102204.56;106794;1264;25455;-49
2023/09/08 02:42:16;;;;;;;;;;;;;;;24.27;41.90;102206.19;106616;1270;25316;-49
2023/09/08 02:44:44;;;;;;;;;;;;;;;24.36;42.02;102203.59;106363;1272;25442;-51
2023/09/08 02:47:11;;;;;;;;;;;;;;;24.35;42.31;102206.66;106586;1269;25331;-50
2023/09/08 02:49:39;;;;;;;;;;;;;;;24.32;42.49;102206.10;106456;1272;25320;-54
2023/09/08 02:52:06;;;;;;;;;;;;;;;24.29;42.44;102206.30;106554;1272;25062;-49
2023/09/08 02:54:34;;;;;;;;;;;;;;;24.24;42.45;102208.10;106342;1274;23000;-50
2023/09/08 02:57:01;;;;;;;;;;;;;;;24.21;42.48;102210.96;106596;1269;25312;-52
2023/09/08 02:59:28;;;;;;;;;;;;;;;24.17;42.65;102212.92;106617;1275;25399;-51
2023/09/08 03:01:55;;;;;;;;;;;;;;;24.17;42.77;102212.95;106753;1270;25390;-49
2023/09/08 03:04:23;;;;;;;;;;;;;;;24.15;42.78;102214.32;106690;1270;25450;-50
2023/09/08 03:06:50;;;;;;;;;;;;;;;24.13;43.02;102211.59;106593;1262;25328;-53
2023/09/08 03:09:17;;;;;;;;;;;;;;;24.11;43.09;102212.20;106563;1271;25393;-49
2023/09/08 03:11:45;;;;;;;;;;;;;;;24.09;43.08;102211.61;106655;1267;24367;-48
2023/09/08 03:14:12;;;;;;;;;;;;;;;24.07;42.98;102211.58;106686;1270;25358;-49
2023/09/08 03:16:39;;;;;;;;;;;;;;;24.05;42.87;102211.88;106690;1271;25396;-51
2023/09/08 03:19:07;;;;;;;;;;;;;;;24.02;43.02;102214.14;106924;1259;25350;-50
2023/09/08 03:21:33;;;;;;;;;;;;;;;24.00;43.18;102212.64;106647;1262;25416;-50
2023/09/08 03:24:00;;;;;;;;;;;;;;;23.97;44.07;102210.51;106646;1257;25548;-49
2023/09/08 03:26:27;;;;;;;;;;;;;;;23.92;44.12;102212.52;106732;1270;25340;-50
2023/09/08 03:28:54;;;;;;;;;;;;;;;23.88;43.73;102213.50;106727;1269;25462;-52
2023/09/08 03:31:21;;;;;;;;;;;;;;;23.81;43.74;102215.08;106784;1263;24279;-52
2023/09/08 03:33:48;;;;;;;;;;;;;;;23.76;44.09;102214.69;106858;1265;25340;-49
2023/09/08 03:36:16;;;;;;;;;;;;;;;23.68;44.58;102212.60;106792;1257;25427;-49
2023/09/08 03:38:44;;;;;;;;;;;;;;;23.57;44.48;102211.09;106802;1265;22510;-49
2023/09/08 03:41:11;;;;;;;;;;;;;;;23.44;44.47;102216.71;106809;1259;23883;-49
2023/09/08 03:43:38;;;;;;;;;;;;;;;23.29;44.56;102218.02;106832;1269;25473;-51
2023/09/08 03:46:05;;;;;;;;;;;;;;;23.17;44.48;102225.73;106765;1270;25493;-49
2023/09/08 03:48:32;;;;;;;;;;;;;;;23.06;44.55;102223.83;106744;1267;25316;-51
2023/09/08 03:51:00;;;;;;;;;;;;;;;22.96;44.64;102227.36;106819;1260;22520;-50
2023/09/08 03:53:27;;;;;;;;;;;;;;;22.86;44.58;102230.70;106709;1260;25365;-50
2023/09/08 03:55:54;;;;;;;;;;;;;;;22.74;44.43;102232.36;106696;1269;25488;-50
2023/09/08 03:58:21;;;;;;;;;;;;;;;22.60;44.33;102229.45;106597;1256;23841;-51
2023/09/08 04:00:48;;;;;;;;;;;;;;;22.50;44.09;102231.67;106485;1264;25340;-51
2023/09/08 04:03:15;;;;;;;;;;;;;;;22.41;44.34;102232.14;106599;1264;25507;-49
2023/09/08 04:05:42;;;;;;;;;;;;;;;22.33;44.54;102235.88;106825;1267;23338;-50
2023/09/08 04:08:09;;;;;;;;;;;;;;;22.29;44.79;102238.05;106681;1265;22500;-50
2023/09/08 04:10:36;;;;;;;;;;;;;;;22.25;44.74;102239.80;106602;1278;25489;-49
2023/09/08 04:13:03;;;;;;;;;;;;;;;22.19;44.75;102242.73;106755;1261;25361;-50
2023/09/08 04:15:30;;;;;;;;;;;;;;;22.15;44.47;102241.69;106713;1268;25363;-50
2023/09/08 04:17:57;;;;;;;;;;;;;;;22.11;44.18;102245.41;106776;1266;25321;-51
2023/09/08 04:20:25;;;;;;;;;;;;;;;22.08;43.94;102244.30;106820;1259;22591;-49
2023/09/08 04:22:52;;;;;;;;;;;;;;;22.02;43.69;102245.11;106729;1256;22514;-51
2023/09/08 04:25:19;;;;;;;;;;;;;;;21.97;43.78;102249.77;106714;1267;25383;-49
2023/09/08 04:27:46;;;;;;;;;;;;;;;21.93;44.06;102256.34;106701;1274;25334;-53
2023/09/08 04:30:13;;;;;;;;;;;;;;;21.89;43.96;102254.21;106743;1267;25343;-50
2023/09/08 04:32:40;;;;;;;;;;;;;;;21.85;44.31;102260.59;106843;1265;25305;-55
2023/09/08 04:35:07;;;;;;;;;;;;;;;21.83;44.52;102259.95;106789;1267;25306;-52
2023/09/08 04:37:36;;;;;;;;;;;;;;;21.81;44.20;102259.33;106790;1264;24288;-49
2023/09/08 04:40:04;;;;;;;;;;;;;;;21.77;44.58;102258.05;106781;1269;25375;-51
2023/09/08 04:42:31;;;;;;;;;;;;;;;21.76;44.73;102257.79;106063;1256;1003474;-48
2023/09/08 04:44:59;;;;;;;;;;;;;;;21.75;44.93;102262.58;106864;1270;23309;-49
2023/09/08 04:47:27;;;;;;;;;;;;;;;21.75;44.76;102267.36;106786;1260;22852;-51
2023/09/08 04:49:54;;;;;;;;;;;;;;;21.73;44.96;102266.90;106798;1267;25386;-49
2023/09/08 04:52:22;;;;;;;;;;;;;;;21.74;45.08;102269.86;106746;1256;25319;-51
2023/09/08 04:54:49;;;;;;;;;;;;;;;21.75;44.79;102270.37;106797;1267;25392;-49
2023/09/08 04:57:16;;;;;;;;;;;;;;;21.75;44.61;102274.06;106868;1267;25316;-52
2023/09/08 04:59:52;;;;;;;;;;;;;;;21.77;44.75;102271.70;106748;1259;22499;-50
2023/09/08 05:02:19;;;;;;;;;;;;;;;21.79;44.69;102273.19;106753;1259;25334;-51
2023/09/08 05:04:46;;;;;;;;;;;;;;;21.81;44.59;102275.38;106789;1259;24391;-51
2023/09/08 05:07:14;;;;;;;;;;;;;;;21.82;44.45;102274.30;106817;1268;25305;-49
2023/09/08 05:09:41;;;;;;;;;;;;;;;21.83;44.43;102270.20;106853;1267;25331;-50
2023/09/08 05:12:09;;;;;;;;;;;;;;;21.83;44.33;102275.67;106780;1269;25377;-51
2023/09/08 05:14:36;;;;;;;;;;;;;;;21.85;44.53;102274.20;106745;1268;25410;-50
2023/09/08 05:17:04;;;;;;;;;;;;;;;21.86;44.22;102273.05;106787;1270;25319;-49
2023/09/08 05:19:31;;;;;;;;;;;;;;;21.89;44.13;102275.23;106777;1272;24192;-49
2023/09/08 05:21:59;;;;;;;;;;;;;;;21.91;44.04;102277.65;106755;1262;25422;-49
2023/09/08 05:24:26;;;;;;;;;;;;;;;21.92;43.98;102278.98;106806;1256;22503;-50
2023/09/08 05:26:53;;;;;;;;;;;;;;;21.95;44.21;102279.76;106755;1265;25418;-49
2023/09/08 05:29:21;;;;;;;;;;;;;;;21.97;44.12;102278.56;106785;1259;25334;-49
2023/09/08 05:31:48;;;;;;;;;;;;;;;22.00;43.97;102282.70;106586;1264;25462;-54
2023/09/08 05:34:16;;;;;;;;;;;;;;;22.02;44.31;102282.59;106013;1270;1003303;-50
2023/09/08 05:36:44;;;;;;;;;;;;;;;22.05;44.56;102283.68;106353;1278;25432;-51
2023/09/08 05:39:13;;;;;;;;;;;;;;;22.10;44.65;102285.95;106804;1259;25501;-49
2023/09/08 05:41:40;;;;;;;;;;;;;;;22.15;44.60;102284.84;106805;1256;22520;-50
2023/09/08 05:44:07;;;;;;;;;;;;;;;22.21;44.58;102286.86;106776;1260;25528;-49
2023/09/08 05:46:35;;;;;;;;;;;;;;;22.27;44.55;102290.26;106922;1267;25353;-48
2023/09/08 05:49:02;;;;;;;;;;;;;;;22.34;44.35;102287.27;106784;1270;25381;-51
2023/09/08 05:51:30;;;;;;;;;;;;;;;22.42;44.30;102292.41;106829;1267;22521;-49
2023/09/08 05:53:58;;;;;;;;;;;;;;;22.49;44.39;102293.65;106795;1269;25482;-50
2023/09/08 05:56:29;;;;;;;;;;;;;;;22.57;44.01;102295.23;106670;1267;25341;-49
2023/09/08 05:58:56;;;;;;;;;;;;;;;22.65;44.57;102296.27;106606;1275;25329;-48
2023/09/08 06:01:24;;;;;;;;;;;;;;;22.75;45.10;102294.06;106795;1267;25466;-48
2023/09/08 06:03:51;;;;;;;;;;;;;;;22.85;45.26;102295.31;106858;1267;25334;-48
2023/09/08 06:06:19;;;;;;;;;;;;;;;22.96;45.08;102296.54;106799;1266;25322;-53
2023/09/08 06:08:46;;;;;;;;;;;;;;;23.10;45.02;102297.45;106849;1264;25316;-50
2023/09/08 06:11:13;;;;;;;;;;;;;;;23.24;44.62;102302.75;106664;1259;24361;-49
2023/09/08 06:13:40;;;;;;;;;;;;;;;23.39;44.15;102301.84;106893;1269;22553;-49
2023/09/08 06:16:08;;;;;;;;;;;;;;;23.53;43.78;102303.93;106585;1275;25499;-51
2023/09/08 06:18:39;;;;;;;;;;;;;;;23.65;43.13;102306.34;106817;1270;25344;-48
2023/09/08 06:21:08;;;;;;;;;;;;;;;23.71;42.72;102310.45;106774;1266;22534;-51
2023/09/08 06:23:35;;;;;;;;;;;;;;;23.74;43.03;102314.51;106827;1268;25363;-52
2023/09/08 06:26:04;;;;;;;;;;;;;;;23.81;42.82;102318.39;106797;1266;22517;-48
2023/09/08 06:28:32;;;;;;;;;;;;;;;23.88;42.88;102319.82;106828;1267;25316;-52
2023/09/08 06:31:00;;;;;;;;;;;;;;;23.98;42.80;102324.95;106849;1263;25325;-52
2023/09/08 06:33:27;;;;;;;;;;;;;;;24.06;42.65;102327.58;106841;1260;25329;-50
2023/09/08 06:35:54;;;;;;;;;;;;;;;24.11;42.24;102330.67;106866;1264;25306;-49
2023/09/08 06:38:21;;;;;;;;;;;;;;;24.13;42.16;102331.40;106818;1267;25344;-48
2023/09/08 06:40:52;;;;;;;;;;;;;;;24.15;42.17;102338.39;106798;1260;25324;-49
2023/09/08 06:43:19;;;;;;;;;;;;;;;24.19;42.08;102344.79;106839;1266;25382;-49
2023/09/08 06:45:53;;;;;;;;;;;;;;;24.21;41.58;102343.08;106709;1267;25318;-48
2023/09/08 06:48:22;;;;;;;;;;;;;;;24.23;41.35;102338.86;106847;1268;22553;-49
2023/09/08 06:50:49;;;;;;;;;;;;;;;24.24;41.43;102343.60;106765;1267;25330;-52
2023/09/08 06:53:16;;;;;;;;;;;;;;;24.27;41.19;102342.77;106801;1259;25465;-50
2023/09/08 06:55:43;;;;;;;;;;;;;;;24.31;41.12;102342.71;106926;1267;22634;-50
2023/09/08 06:58:14;;;;;;;;;;;;;;;24.36;41.02;102345.12;106775;1259;22524;-48
2023/09/08 07:00:41;;;;;;;;;;;;;;;24.40;40.72;102345.04;106654;1262;25354;-50
2023/09/08 07:03:09;;;;;;;;;;;;;;;24.48;40.47;102346.95;106721;1266;25435;-49
2023/09/08 07:05:38;;;;;;;;;;;;;;;24.57;40.45;102348.71;106636;1270;25519;-50
2023/09/08 07:08:06;;;;;;;;;;;;;;;24.63;40.16;102346.81;106837;1256;26592;-49
2023/09/08 07:10:33;;;;;;;;;;;;;;;24.76;39.92;102351.60;106698;1275;25328;-52
2023/09/08 07:13:00;;;;;;;;;;;;;;;24.86;39.79;102347.29;106774;1259;25393;-49
2023/09/08 07:15:27;;;;;;;;;;;;;;;24.96;39.46;102346.17;106819;1266;22653;-50
2023/09/08 07:17:54;;;;;;;;;;;;;;;25.06;39.22;102345.27;106779;1266;25418;-49
2023/09/08 07:20:21;;;;;;;;;;;;;;;25.13;38.97;102343.11;106815;1260;25488;-50
2023/09/08 07:22:48;;;;;;;;;;;;;;;25.23;38.39;102339.48;106747;1270;25344;-51
2023/09/08 07:25:15;;;;;;;;;;;;;;;25.40;38.39;102341.87;106794;1269;25434;-50
2023/09/08 07:27:42;;;;;;;;;;;;;;;25.56;37.79;102339.83;106803;1268;25314;-50
2023/09/08 07:30:09;;;;;;;;;;;;;;;25.68;37.15;102338.08;106753;1259;25368;-53
2023/09/08 07:32:36;;;;;;;;;;;;;;;25.71;36.61;102340.52;106794;1268;22632;-49
2023/09/08 07:35:03;;;;;;;;;;;;;;;25.67;37.07;102334.53;106739;1267;25316;-51
2023/09/08 07:37:31;;;;;;;;;;;;;;;25.61;37.39;102332.06;106745;1268;25411;-55
2023/09/08 07:39:58;;;;;;;;;;;;;;;25.58;37.33;102334.40;106593;1265;25361;-49
2023/09/08 07:42:25;;;;;;;;;;;;;;;25.57;36.96;102333.77;106479;1275;25395;-54
2023/09/08 07:44:52;;;;;;;;;;;;;;;25.54;36.95;102333.56;106725;1267;25353;-53
2023/09/08 07:47:19;;;;;;;;;;;;;;;25.52;36.81;102332.29;106859;1259;25305;-51
2023/09/08 07:49:47;;;;;;;;;;;;;;;25.50;36.95;102328.33;106703;1270;25430;-50
2023/09/08 07:52:14;;;;;;;;;;;;;;;25.49;36.39;102327.66;106771;1266;22506;-49
2023/09/08 07:54:41;;;;;;;;;;;;;;;25.49;36.14;102331.36;106523;1270;25408;-52
2023/09/08 07:57:08;;;;;;;;;;;;;;;25.47;36.41;102329.18;105993;1270;1002872;-50
2023/09/08 07:59:35;;;;;;;;;;;;;;;25.44;36.62;102330.81;106744;1268;25481;-50
2023/09/08 08:02:04;;;;;;;;;;;;;;;25.44;36.49;102330.60;106778;1263;25268;-48
2023/09/08 08:04:31;;;;;;;;;;;;;;;25.48;35.89;102331.64;106907;1267;25586;-53
2023/09/08 08:06:58;;;;;;;;;;;;;;;25.51;35.20;102329.69;106895;1268;25408;-50
2023/09/08 08:09:25;;;;;;;;;;;;;;;25.49;34.98;102329.05;106075;1259;1003785;-52
2023/09/08 08:11:52;;;;;;;;;;;;;;;25.47;35.42;102325.78;106679;1270;25465;-51
2023/09/08 08:14:19;;;;;;;;;;;;;;;25.45;35.10;102324.16;106775;1261;25436;-54
2023/09/08 08:16:46;;;;;;;;;;;;;;;25.42;34.32;102321.31;106905;1267;25344;-50
2023/09/08 08:19:12;;;;;;;;;;;;;;;25.42;34.10;102319.73;106634;1271;25453;-50
2023/09/08 08:21:42;;;;;;;;;;;;;;;25.46;34.45;102323.59;106761;1267;25341;-50
2023/09/08 08:24:09;;;;;;;;;;;;;;;25.51;34.35;102321.65;106755;1256;25367;-50
2023/09/08 08:26:37;;;;;;;;;;;;;;;25.56;33.79;102324.54;106450;1270;25466;-54
2023/09/08 08:29:04;;;;;;;;;;;;;;;25.62;34.23;102325.96;106694;1260;25344;-50
2023/09/08 08:31:31;;;;;;;;;;;;;;;25.67;33.67;102321.73;106632;1262;25376;-50
2023/09/08 08:33:57;;;;;;;;;;;;;;;25.70;33.36;102322.64;106841;1268;25350;-50
2023/09/08 08:36:24;;;;;;;;;;;;;;;25.72;33.61;102324.30;106796;1265;25353;-55
2023/09/08 08:38:51;;;;;;;;;;;;;;;25.74;33.19;102322.92;106811;1268;25510;-49
2023/09/08 08:41:18;;;;;;;;;;;;;;;25.76;32.97;102321.18;106784;1267;22626;-51
2023/09/08 08:43:45;;;;;;;;;;;;;;;25.80;32.56;102319.15;106850;1270;22528;-50
2023/09/08 08:46:12;;;;;;;;;;;;;;;25.86;32.13;102322.05;106846;1272;25316;-49
2023/09/08 08:48:39;;;;;;;;;;;;;;;25.89;31.44;102324.71;106802;1268;25431;-50
2023/09/08 08:51:06;;;;;;;;;;;;;;;26.04;31.05;102322.02;106861;1259;25396;-50
2023/09/08 08:53:33;;;;;;;;;;;;;;;26.10;30.58;102322.20;106713;1267;25319;-52
2023/09/08 08:55:59;;;;;;;;;;;;;;;26.13;30.71;102322.91;106703;1269;22521;-54
2023/09/08 08:58:27;;;;;;;;;;;;;;;26.18;30.50;102325.94;106774;1267;24181;-55
2023/09/08 09:00:56;;;;;;;;;;;;;;;26.24;30.78;102324.84;106825;1259;25392;-51
2023/09/08 09:03:24;;;;;;;;;;;;;;;26.28;29.97;102323.69;106794;1262;25328;-49
2023/09/08 09:05:52;;;;;;;;;;;;;;;26.29;29.85;102322.89;106804;1259;22539;-50
2023/09/08 09:08:19;;;;;;;;;;;;;;;26.32;29.65;102324.02;106811;1268;25445;-50
2023/09/08 09:10:46;;;;;;;;;;;;;;;26.37;29.60;102319.93;106895;1268;25319;-52
2023/09/08 09:13:13;;;;;;;;;;;;;;;26.40;29.38;102322.04;106819;1261;25344;-51
2023/09/08 09:15:40;;;;;;;;;;;;;;;26.46;28.98;102326.65;106753;1256;22523;-50
2023/09/08 09:18:07;;;;;;;;;;;;;;;26.52;28.82;102322.55;106750;1268;25309;-51
2023/09/08 09:20:35;;;;;;;;;;;;;;;26.58;28.85;102318.57;106751;1268;24169;-50
2023/09/08 09:23:03;;;;;;;;;;;;;;;26.63;28.47;102322.15;106716;1262;25316;-50
2023/09/08 09:25:30;;;;;;;;;;;;;;;26.69;28.38;102319.66;106737;1265;24235;-49
2023/09/08 09:27:58;;;;;;;;;;;;;;;26.74;28.48;102316.83;106808;1262;26478;-50
2023/09/08 09:30:26;;;;;;;;;;;;;;;26.80;27.86;102313.27;106755;1274;24209;-49
2023/09/08 09:33:02;;;;;;;;;;;;;;;26.81;27.40;102311.89;106728;1272;25316;-49
2023/09/08 09:35:42;;;;;;;;;;;;;;;26.81;26.83;102312.25;106901;1266;22500;-54
2023/09/08 09:38:09;;;;;;;;;;;;;;;26.83;26.86;102309.86;106965;1268;25296;-49
2023/09/08 09:40:36;;;;;;;;;;;;;;;26.86;26.98;102304.81;106826;1268;25396;-49
2023/09/08 09:43:04;;;;;;;;;;;;;;;26.90;26.69;102305.84;106747;1267;25315;-49
2023/09/08 09:45:32;;;;;;;;;;;;;;;26.92;26.98;102305.82;106867;1260;22516;-49
2023/09/08 09:47:59;;;;;;;;;;;;;;;26.97;27.13;102303.38;106445;1271;25319;-54
2023/09/08 09:50:30;;;;;;;;;;;;;;;27.01;27.02;102307.01;106887;1263;22511;-48
2023/09/08 09:52:58;;;;;;;;;;;;;;;27.05;26.86;102307.85;106874;1267;25340;-50
2023/09/08 09:55:25;;;;;;;;;;;;;;;27.07;26.20;102306.61;106792;1270;25440;-53
2023/09/08 09:57:55;;;;;;;;;;;;;;;27.08;26.40;102304.61;106823;1262;25325;-50
2023/09/08 10:00:23;;;;;;;;;;;;;;;27.10;26.26;102305.38;106824;1268;23276;-52
2023/09/08 10:02:50;;;;;;;;;;;;;;;27.11;26.04;102301.16;106685;1262;24353;-51
2023/09/08 10:05:17;;;;;;;;;;;;;;;27.12;25.82;102301.63;106881;1259;22590;-50
2023/09/08 10:07:44;;;;;;;;;;;;;;;27.12;25.99;102299.53;106874;1269;25378;-49
2023/09/08 10:10:11;;;;;;;;;;;;;;;27.10;26.11;102300.20;106751;1262;24196;-49
2023/09/08 10:12:40;;;;;;;;;;;;;;;27.07;26.50;102297.52;106744;1267;25249;-52
2023/09/08 10:15:07;;;;;;;;;;;;;;;27.08;26.70;102295.48;106856;1273;25274;-51
2023/09/08 10:17:34;;;;;;;;;;;;;;;27.13;26.58;102296.94;106816;1264;22773;-49
2023/09/08 10:20:10;;;;;;;;;;;;;;;27.20;26.12;102296.83;106828;1269;25293;-51
2023/09/08 10:22:38;;;;;;;;;;;;;;;27.15;26.12;102297.17;106757;1266;25469;-49
2023/09/08 10:25:06;;;;;;;;;;;;;;;27.19;26.36;102297.64;106753;1272;25364;-51
2023/09/08 10:27:33;;;;;;;;;;;;;;;27.32;26.64;102292.31;106835;1272;25316;-50
2023/09/08 10:30:00;;;;;;;;;;;;;;;27.40;26.30;102294.11;106874;1272;25296;-52
2023/09/08 10:32:27;;;;;;;;;;;;;;;27.44;25.71;102288.13;106804;1272;25506;-50
2023/09/08 10:34:54;;;;;;;;;;;;;;;27.48;25.50;102288.55;106650;1270;25364;-50
2023/09/08 10:37:21;;;;;;;;;;;;;;;27.53;25.86;102286.09;106826;1267;25347;-50
2023/09/08 10:39:49;;;;;;;;;;;;;;;27.59;26.26;102286.89;106810;1269;23191;-50
2023/09/08 10:42:16;;;;;;;;;;;;;;;27.65;26.13;102281.14;106760;1259;25628;-49
2023/09/08 10:44:49;;;;;;;;;;;;;;;27.68;25.69;102278.96;106788;1260;25396;-52
2023/09/08 10:47:19;;;;;;;;;;;;;;;27.71;25.50;102275.34;106815;1268;22747;-50
2023/09/08 10:49:46;;;;;;;;;;;;;;;27.74;25.94;102279.26;106824;1260;23928;-51
2023/09/08 10:52:14;;;;;;;;;;;;;;;27.76;25.44;102277.34;106834;1256;25319;-48
2023/09/08 10:54:45;;;;;;;;;;;;;;;27.77;25.28;102271.92;106731;1270;25367;-54
2023/09/08 10:57:15;;;;;;;;;;;;;;;27.79;25.35;102267.88;106586;1267;25469;-52
2023/09/08 10:59:51;;;;;;;;;;;;;;;27.82;26.10;102262.98;106833;1265;24204;-50
2023/09/08 11:02:38;;;;;;;;;;;;;;;27.90;26.53;102262.27;106802;1269;25334;-50
2023/09/08 11:05:06;;;;;;;;;;;;;;;27.97;26.65;102263.37;106765;1272;22515;-53
2023/09/08 11:07:33;;;;;;;;;;;;;;;28.00;26.80;102255.42;106761;1271;22595;-49
2023/09/08 11:10:01;;;;;;;;;;;;;;;28.05;26.47;102256.36;106540;1275;25312;-53
2023/09/08 11:12:28;;;;;;;;;;;;;;;28.06;26.17;102255.03;106542;1269;25343;-49
2023/09/08 11:14:55;;;;;;;;;;;;;;;28.05;26.66;102247.11;106699;1268;25338;-50
2023/09/08 11:17:25;;;;;;;;;;;;;;;28.05;26.34;102247.29;106820;1269;25465;-52
2023/09/08 11:19:52;;;;;;;;;;;;;;;28.07;26.06;102248.50;106839;1266;25207;-49
2023/09/08 11:22:21;;;;;;;;;;;;;;;28.10;26.29;102243.34;106748;1259;25383;-54
2023/09/08 11:24:48;;;;;;;;;;;;;;;28.14;26.47;102237.71;106818;1269;23850;-49
2023/09/08 11:27:15;;;;;;;;;;;;;;;28.17;26.26;102237.80;106760;1275;25307;-51
2023/09/08 11:29:42;;;;;;;;;;;;;;;28.17;26.13;102240.14;106761;1257;25337;-50
2023/09/08 11:32:09;;;;;;;;;;;;;;;28.19;26.29;102238.58;106777;1269;25343;-49
2023/09/08 11:34:36;;;;;;;;;;;;;;;28.21;26.30;102235.91;106838;1270;25465;-49
2023/09/08 11:37:12;;;;;;;;;;;;;;;28.23;26.57;102232.20;106843;1270;25412;-50
2023/09/08 11:39:40;;;;;;;;;;;;;;;28.25;26.69;102227.04;106712;1270;23351;-50
2023/09/08 11:42:07;;;;;;;;;;;;;;;28.29;26.51;102221.60;106640;1269;25315;-52
2023/09/08 11:44:37;;;;;;;;;;;;;;;28.32;26.82;102219.22;106877;1272;25344;-53
2023/09/08 11:47:09;;;;;;;;;;;;;;;28.34;27.01;102213.34;106819;1272;25488;-51
2023/09/08 11:49:36;;;;;;;;;;;;;;;28.37;26.96;102209.22;106786;1274;22506;-51
2023/09/08 11:52:04;;;;;;;;;;;;;;;28.38;26.22;102210.05;106838;1268;25489;-48
2023/09/08 11:54:31;;;;;;;;;;;;;;;28.38;26.10;102203.60;106333;1274;22519;-49
2023/09/08 11:56:59;;;;;;;;;;;;;;;28.38;26.40;102201.27;106788;1271;25376;-52
2023/09/08 11:59:30;;;;;;;;;;;;;;;28.39;26.65;102202.62;106841;1268;22511;-50
2023/09/08 12:01:57;;;;;;;;;;;;;;;28.40;26.85;102198.81;106865;1270;25387;-49
2023/09/08 12:04:25;;;;;;;;;;;;;;;28.41;27.05;102200.51;106715;1270;25383;-54
2023/09/08 12:06:52;;;;;;;;;;;;;;;28.44;26.92;102197.64;106544;1273;25466;-52
2023/09/08 12:09:22;;;;;;;;;;;;;;;28.46;26.52;102198.70;106733;1268;22539;-54
2023/09/08 12:11:49;;;;;;;;;;;;;;;28.49;26.59;102193.12;106777;1269;25363;-56
2023/09/08 12:14:16;;;;;;;;;;;;;;;28.51;26.58;102191.02;106879;1259;25315;-49
2023/09/08 12:16:43;;;;;;;;;;;;;;;28.50;26.38;102186.25;106531;1278;25334;-49
2023/09/08 12:19:32;;;;;;;;;;;;;;;28.49;26.40;102185.63;106797;1272;25551;-50
2023/09/08 12:22:02;;;;;;;;;;;;;;;28.49;26.83;102186.69;106814;1262;25306;-53
2023/09/08 12:24:45;;;;;;;;;;;;;;;28.51;26.53;102184.80;106777;1269;22507;-52
2023/09/08 12:27:14;;;;;;;;;;;;;;;28.50;26.42;102179.47;106817;1270;25379;-49
2023/09/08 12:29:41;;;;;;;;;;;;;;;28.51;26.53;102177.06;106808;1271;25293;-53